Cedar Point, Kansas
Current Conditions -  °F | °C
As of 10:15 AM on Wednesday 26 Nov 2014 (Local Time) from KEWK Reporting Station
Clear Clear  
Wind Chill: 35°   Ceiling: Unl
Heat Index: 45°   Visibility: 10mi
Dew Point: 21°   Wind: 29mph
Humidity: 39%   Direction: 330°NNW
Pressure: 30.11"   Gusts: 39mph
Location:  38.26°N, 96.82°W
Report Text: KEWK 261615Z AUTO 33025G34KT 10SM CLR 07/M06 A3011 RMK AO1
Loading
Personal Weather Stations






























Interactive Weather Map New forecast layout! Learn more

10-Day Weather Forecast

Advertisements
Track Severe Weather on mobile